Tracy, Minnesota
Current Conditions -  °F | °C
As of 2:13 PM on Thursday 29 Jan 2015 (Local Time) from KTKC Reporting Station
Overcast Overcast  
Wind Chill: 13°   Ceiling: 1700
Heat Index: 27°   Visibility: 10mi
Dew Point: 22°   Wind: 22mph
Humidity: 82%   Direction: 340°NNW
Pressure: 30.39"   Gusts: 28mph
Location:  44.23°N, 95.62°W
Report Text: KTKC 292013Z AUTO 34019G24KT 10SM OVC017 M03/M05 A3039 RMK AO2 T10281055
Loading
Personal Weather Stations






























Interactive Weather Map New forecast layout! Learn more

10-Day Weather Forecast

Advertisements
Track Severe Weather on mobile